sensor_id;sensor_type;location;lat;lon;timestamp;P1;durP1;ratioP1;P2;durP2;ratioP2
10471;SDS011;5283;48.876;8.962;2022-09-09T00:00:46;2.60;;;1.17;;
10471;SDS011;5283;48.876;8.962;2022-09-09T00:03:18;5.50;;;1.33;;
10471;SDS011;5283;48.876;8.962;2022-09-09T00:11:16;2.97;;;1.17;;
10471;SDS011;5283;48.876;8.962;2022-09-09T00:13:48;4.33;;;1.63;;
10471;SDS011;5283;48.876;8.962;2022-09-09T00:16:22;4.87;;;1.60;;
10471;SDS011;5283;48.876;8.962;2022-09-09T00:19:07;6.57;;;1.50;;
10471;SDS011;5283;48.876;8.962;2022-09-09T00:32:53;2.90;;;1.43;;
10471;SDS011;5283;48.876;8.962;2022-09-09T00:35:29;3.80;;;1.33;;
10471;SDS011;5283;48.876;8.962;2022-09-09T00:38:26;4.03;;;1.50;;
10471;SDS011;5283;48.876;8.962;2022-09-09T00:41:05;4.33;;;1.47;;
10471;SDS011;5283;48.876;8.962;2022-09-09T00:43:41;3.97;;;1.33;;
10471;SDS011;5283;48.876;8.962;2022-09-09T00:46:21;4.53;;;1.60;;
10471;SDS011;5283;48.876;8.962;2022-09-09T00:59:55;2.47;;;1.40;;
10471;SDS011;5283;48.876;8.962;2022-09-09T01:05:20;3.23;;;1.60;;
10471;SDS011;5283;48.876;8.962;2022-09-09T01:08:05;4.13;;;1.40;;
10471;SDS011;5283;48.876;8.962;2022-09-09T01:10:50;6.33;;;1.70;;
10471;SDS011;5283;48.876;8.962;2022-09-09T01:13:29;1.40;;;1.10;;
10471;SDS011;5283;48.876;8.962;2022-09-09T01:16:00;5.17;;;1.67;;
10471;SDS011;5283;48.876;8.962;2022-09-09T01:18:32;3.50;;;1.63;;
10471;SDS011;5283;48.876;8.962;2022-09-09T01:21:26;2.10;;;1.37;;
10471;SDS011;5283;48.876;8.962;2022-09-09T01:26:58;3.03;;;1.30;;
10471;SDS011;5283;48.876;8.962;2022-09-09T01:29:28;3.67;;;1.30;;
10471;SDS011;5283;48.876;8.962;2022-09-09T01:32:39;2.53;;;1.43;;
10471;SDS011;5283;48.876;8.962;2022-09-09T01:35:03;4.40;;;1.27;;
10471;SDS011;5283;48.876;8.962;2022-09-09T01:37:30;5.07;;;1.37;;
10471;SDS011;5283;48.876;8.962;2022-09-09T01:39:57;4.60;;;1.27;;
10471;SDS011;5283;48.876;8.962;2022-09-09T01:42:23;3.50;;;1.27;;
10471;SDS011;5283;48.876;8.962;2022-09-09T01:44:51;4.90;;;1.33;;
10471;SDS011;5283;48.876;8.962;2022-09-09T01:47:18;1.83;;;1.00;;
10471;SDS011;5283;48.876;8.962;2022-09-09T01:49:44;4.27;;;1.33;;
10471;SDS011;5283;48.876;8.962;2022-09-09T01:52:11;6.53;;;1.53;;
10471;SDS011;5283;48.876;8.962;2022-09-09T01:54:38;4.10;;;1.57;;
10471;SDS011;5283;48.876;8.962;2022-09-09T02:02:39;3.13;;;1.23;;
10471;SDS011;5283;48.876;8.962;2022-09-09T02:05:17;3.17;;;1.13;;
10471;SDS011;5283;48.876;8.962;2022-09-09T02:07:48;3.70;;;1.10;;
10471;SDS011;5283;48.876;8.962;2022-09-09T02:10:17;3.27;;;0.87;;
10471;SDS011;5283;48.876;8.962;2022-09-09T02:13:10;3.17;;;1.30;;
10471;SDS011;5283;48.876;8.962;2022-09-09T02:15:44;4.70;;;1.00;;
10471;SDS011;5283;48.876;8.962;2022-09-09T02:18:35;3.20;;;1.30;;
10471;SDS011;5283;48.876;8.962;2022-09-09T02:21:08;3.87;;;1.60;;
10471;SDS011;5283;48.876;8.962;2022-09-09T02:23:37;6.53;;;2.10;;
10471;SDS011;5283;48.876;8.962;2022-09-09T02:26:07;4.23;;;1.77;;
10471;SDS011;5283;48.876;8.962;2022-09-09T02:28:36;5.23;;;1.60;;
10471;SDS011;5283;48.876;8.962;2022-09-09T02:31:05;2.83;;;1.47;;
10471;SDS011;5283;48.876;8.962;2022-09-09T02:33:37;4.30;;;1.80;;
10471;SDS011;5283;48.876;8.962;2022-09-09T02:36:11;5.17;;;2.00;;
10471;SDS011;5283;48.876;8.962;2022-09-09T02:38:43;7.80;;;1.80;;
10471;SDS011;5283;48.876;8.962;2022-09-09T02:41:20;6.40;;;1.80;;
10471;SDS011;5283;48.876;8.962;2022-09-09T02:43:52;2.63;;;1.50;;
10471;SDS011;5283;48.876;8.962;2022-09-09T02:48:59;4.00;;;1.50;;
10471;SDS011;5283;48.876;8.962;2022-09-09T02:51:39;2.10;;;1.03;;
10471;SDS011;5283;48.876;8.962;2022-09-09T02:54:28;3.57;;;1.57;;
10471;SDS011;5283;48.876;8.962;2022-09-09T02:57:01;7.00;;;1.90;;
10471;SDS011;5283;48.876;8.962;2022-09-09T02:59:38;2.37;;;1.40;;
10471;SDS011;5283;48.876;8.962;2022-09-09T03:02:05;5.13;;;1.63;;
10471;SDS011;5283;48.876;8.962;2022-09-09T03:04:32;3.03;;;1.40;;
10471;SDS011;5283;48.876;8.962;2022-09-09T03:06:59;2.17;;;1.40;;
10471;SDS011;5283;48.876;8.962;2022-09-09T03:09:26;4.13;;;1.73;;
10471;SDS011;5283;48.876;8.962;2022-09-09T03:11:52;2.57;;;1.13;;
10471;SDS011;5283;48.876;8.962;2022-09-09T03:14:21;2.93;;;1.47;;
10471;SDS011;5283;48.876;8.962;2022-09-09T03:16:51;5.33;;;1.63;;
10471;SDS011;5283;48.876;8.962;2022-09-09T03:19:19;3.97;;;1.73;;
10471;SDS011;5283;48.876;8.962;2022-09-09T03:21:46;3.63;;;1.43;;
10471;SDS011;5283;48.876;8.962;2022-09-09T03:24:13;5.13;;;1.50;;
10471;SDS011;5283;48.876;8.962;2022-09-09T03:26:40;5.17;;;2.07;;
10471;SDS011;5283;48.876;8.962;2022-09-09T03:29:11;5.17;;;1.70;;
10471;SDS011;5283;48.876;8.962;2022-09-09T03:31:39;4.70;;;1.70;;
10471;SDS011;5283;48.876;8.962;2022-09-09T03:34:06;6.27;;;1.93;;
10471;SDS011;5283;48.876;8.962;2022-09-09T03:36:33;7.17;;;2.20;;
10471;SDS011;5283;48.876;8.962;2022-09-09T03:39:00;2.37;;;1.60;;
10471;SDS011;5283;48.876;8.962;2022-09-09T03:41:27;3.63;;;1.80;;
10471;SDS011;5283;48.876;8.962;2022-09-09T03:43:54;3.77;;;1.87;;
10471;SDS011;5283;48.876;8.962;2022-09-09T03:46:22;2.13;;;1.80;;
10471;SDS011;5283;48.876;8.962;2022-09-09T03:48:50;5.00;;;1.80;;
10471;SDS011;5283;48.876;8.962;2022-09-09T03:51:18;7.57;;;1.60;;
10471;SDS011;5283;48.876;8.962;2022-09-09T03:53:45;2.17;;;1.70;;
10471;SDS011;5283;48.876;8.962;2022-09-09T03:56:12;4.13;;;1.73;;
10471;SDS011;5283;48.876;8.962;2022-09-09T03:58:39;5.33;;;1.73;;
10471;SDS011;5283;48.876;8.962;2022-09-09T04:01:13;4.57;;;1.60;;
10471;SDS011;5283;48.876;8.962;2022-09-09T04:03:40;3.50;;;1.80;;
10471;SDS011;5283;48.876;8.962;2022-09-09T04:06:08;3.80;;;1.43;;
10471;SDS011;5283;48.876;8.962;2022-09-09T04:08:36;4.30;;;1.43;;
10471;SDS011;5283;48.876;8.962;2022-09-09T04:11:04;3.30;;;1.37;;
10471;SDS011;5283;48.876;8.962;2022-09-09T04:13:33;5.00;;;1.40;;
10471;SDS011;5283;48.876;8.962;2022-09-09T04:16:01;4.10;;;1.60;;
10471;SDS011;5283;48.876;8.962;2022-09-09T04:18:30;2.60;;;1.30;;
10471;SDS011;5283;48.876;8.962;2022-09-09T04:20:58;4.33;;;1.33;;
10471;SDS011;5283;48.876;8.962;2022-09-09T04:23:25;3.67;;;1.50;;
10471;SDS011;5283;48.876;8.962;2022-09-09T04:25:55;3.20;;;1.53;;
10471;SDS011;5283;48.876;8.962;2022-09-09T04:28:23;1.90;;;1.10;;
10471;SDS011;5283;48.876;8.962;2022-09-09T04:30:52;3.27;;;1.00;;
10471;SDS011;5283;48.876;8.962;2022-09-09T04:33:19;2.60;;;0.97;;
10471;SDS011;5283;48.876;8.962;2022-09-09T04:35:47;2.20;;;1.23;;
10471;SDS011;5283;48.876;8.962;2022-09-09T04:38:16;2.30;;;1.07;;
10471;SDS011;5283;48.876;8.962;2022-09-09T04:40:46;2.23;;;0.90;;
10471;SDS011;5283;48.876;8.962;2022-09-09T04:43:13;3.33;;;1.13;;
10471;SDS011;5283;48.876;8.962;2022-09-09T04:45:46;3.87;;;1.03;;
10471;SDS011;5283;48.876;8.962;2022-09-09T04:48:14;4.70;;;0.83;;
10471;SDS011;5283;48.876;8.962;2022-09-09T04:50:41;4.27;;;1.10;;
10471;SDS011;5283;48.876;8.962;2022-09-09T04:53:08;2.57;;;1.00;;
10471;SDS011;5283;48.876;8.962;2022-09-09T04:55:35;2.83;;;0.90;;
10471;SDS011;5283;48.876;8.962;2022-09-09T04:58:05;3.93;;;0.90;;
10471;SDS011;5283;48.876;8.962;2022-09-09T05:00:34;1.27;;;0.60;;
10471;SDS011;5283;48.876;8.962;2022-09-09T05:03:02;3.83;;;1.23;;
10471;SDS011;5283;48.876;8.962;2022-09-09T05:05:31;3.80;;;1.20;;
10471;SDS011;5283;48.876;8.962;2022-09-09T05:08:06;3.80;;;1.17;;
10471;SDS011;5283;48.876;8.962;2022-09-09T05:10:36;1.00;;;0.73;;
10471;SDS011;5283;48.876;8.962;2022-09-09T05:13:04;5.67;;;1.00;;
10471;SDS011;5283;48.876;8.962;2022-09-09T05:15:32;0.97;;;0.80;;
10471;SDS011;5283;48.876;8.962;2022-09-09T05:18:00;2.73;;;1.07;;
10471;SDS011;5283;48.876;8.962;2022-09-09T05:20:27;4.23;;;1.00;;
10471;SDS011;5283;48.876;8.962;2022-09-09T05:22:54;4.00;;;1.10;;
10471;SDS011;5283;48.876;8.962;2022-09-09T05:25:22;2.17;;;0.90;;
10471;SDS011;5283;48.876;8.962;2022-09-09T05:27:52;4.13;;;1.13;;
10471;SDS011;5283;48.876;8.962;2022-09-09T05:30:20;2.63;;;1.37;;
10471;SDS011;5283;48.876;8.962;2022-09-09T05:32:47;3.30;;;1.00;;
10471;SDS011;5283;48.876;8.962;2022-09-09T05:35:14;2.43;;;0.90;;
10471;SDS011;5283;48.876;8.962;2022-09-09T05:37:43;2.67;;;1.10;;
10471;SDS011;5283;48.876;8.962;2022-09-09T05:40:10;3.03;;;0.90;;
10471;SDS011;5283;48.876;8.962;2022-09-09T05:42:37;2.43;;;0.80;;
10471;SDS011;5283;48.876;8.962;2022-09-09T05:45:05;2.83;;;0.80;;
10471;SDS011;5283;48.876;8.962;2022-09-09T05:47:34;2.93;;;1.50;;
10471;SDS011;5283;48.876;8.962;2022-09-09T05:50:01;2.67;;;1.07;;
10471;SDS011;5283;48.876;8.962;2022-09-09T05:52:28;4.50;;;1.03;;
10471;SDS011;5283;48.876;8.962;2022-09-09T05:54:55;3.17;;;1.00;;
10471;SDS011;5283;48.876;8.962;2022-09-09T05:57:23;2.80;;;0.90;;
10471;SDS011;5283;48.876;8.962;2022-09-09T05:59:49;3.57;;;1.43;;
10471;SDS011;5283;48.876;8.962;2022-09-09T06:02:16;4.93;;;1.00;;
10471;SDS011;5283;48.876;8.962;2022-09-09T06:04:43;2.43;;;1.00;;
10471;SDS011;5283;48.876;8.962;2022-09-09T06:07:09;2.63;;;1.03;;
10471;SDS011;5283;48.876;8.962;2022-09-09T06:09:36;3.10;;;1.00;;
10471;SDS011;5283;48.876;8.962;2022-09-09T06:12:03;3.73;;;1.00;;
10471;SDS011;5283;48.876;8.962;2022-09-09T06:14:29;2.57;;;0.70;;
10471;SDS011;5283;48.876;8.962;2022-09-09T06:16:56;2.00;;;0.70;;
10471;SDS011;5283;48.876;8.962;2022-09-09T06:19:23;2.57;;;0.90;;
10471;SDS011;5283;48.876;8.962;2022-09-09T06:21:52;0.60;;;0.60;;
10471;SDS011;5283;48.876;8.962;2022-09-09T06:24:19;1.63;;;0.97;;
10471;SDS011;5283;48.876;8.962;2022-09-09T06:26:46;2.20;;;0.73;;
10471;SDS011;5283;48.876;8.962;2022-09-09T06:29:12;5.17;;;1.20;;
10471;SDS011;5283;48.876;8.962;2022-09-09T06:31:39;4.03;;;1.37;;
10471;SDS011;5283;48.876;8.962;2022-09-09T06:34:07;2.50;;;1.10;;
10471;SDS011;5283;48.876;8.962;2022-09-09T06:36:35;2.40;;;1.17;;
10471;SDS011;5283;48.876;8.962;2022-09-09T06:39:04;0.87;;;0.70;;
10471;SDS011;5283;48.876;8.962;2022-09-09T06:41:33;3.07;;;1.07;;
10471;SDS011;5283;48.876;8.962;2022-09-09T06:44:00;4.27;;;1.13;;
10471;SDS011;5283;48.876;8.962;2022-09-09T06:46:28;1.17;;;0.83;;
10471;SDS011;5283;48.876;8.962;2022-09-09T06:48:58;3.73;;;1.27;;
10471;SDS011;5283;48.876;8.962;2022-09-09T06:51:27;2.67;;;1.00;;
10471;SDS011;5283;48.876;8.962;2022-09-09T06:54:00;2.47;;;1.17;;
10471;SDS011;5283;48.876;8.962;2022-09-09T06:56:29;1.87;;;1.10;;
10471;SDS011;5283;48.876;8.962;2022-09-09T06:58:57;3.10;;;0.90;;
10471;SDS011;5283;48.876;8.962;2022-09-09T07:01:28;4.87;;;1.20;;
10471;SDS011;5283;48.876;8.962;2022-09-09T07:03:57;2.13;;;1.20;;
10471;SDS011;5283;48.876;8.962;2022-09-09T07:06:28;3.80;;;1.03;;
10471;SDS011;5283;48.876;8.962;2022-09-09T07:08:57;3.73;;;1.27;;
10471;SDS011;5283;48.876;8.962;2022-09-09T07:11:26;2.20;;;0.73;;
10471;SDS011;5283;48.876;8.962;2022-09-09T07:13:56;1.23;;;0.83;;
10471;SDS011;5283;48.876;8.962;2022-09-09T07:16:24;2.50;;;0.83;;
10471;SDS011;5283;48.876;8.962;2022-09-09T07:18:51;4.93;;;0.80;;
10471;SDS011;5283;48.876;8.962;2022-09-09T07:21:19;2.40;;;1.07;;
10471;SDS011;5283;48.876;8.962;2022-09-09T07:23:47;2.40;;;0.90;;
10471;SDS011;5283;48.876;8.962;2022-09-09T07:26:16;2.37;;;0.90;;
10471;SDS011;5283;48.876;8.962;2022-09-09T07:28:45;10.33;;;1.07;;
10471;SDS011;5283;48.876;8.962;2022-09-09T07:31:13;2.93;;;1.10;;
10471;SDS011;5283;48.876;8.962;2022-09-09T07:33:50;3.23;;;1.10;;
10471;SDS011;5283;48.876;8.962;2022-09-09T07:36:21;3.07;;;1.07;;
10471;SDS011;5283;48.876;8.962;2022-09-09T07:38:51;3.83;;;1.00;;
10471;SDS011;5283;48.876;8.962;2022-09-09T07:41:29;3.10;;;1.73;;
10471;SDS011;5283;48.876;8.962;2022-09-09T07:44:06;2.23;;;0.87;;
10471;SDS011;5283;48.876;8.962;2022-09-09T07:46:34;2.90;;;1.30;;
10471;SDS011;5283;48.876;8.962;2022-09-09T07:49:01;3.97;;;1.27;;
10471;SDS011;5283;48.876;8.962;2022-09-09T07:51:30;2.30;;;0.97;;
10471;SDS011;5283;48.876;8.962;2022-09-09T07:53:59;1.93;;;1.00;;
10471;SDS011;5283;48.876;8.962;2022-09-09T07:56:28;3.20;;;1.03;;
10471;SDS011;5283;48.876;8.962;2022-09-09T07:58:56;4.00;;;1.00;;
10471;SDS011;5283;48.876;8.962;2022-09-09T08:01:28;1.43;;;0.80;;
10471;SDS011;5283;48.876;8.962;2022-09-09T08:03:58;8.00;;;1.30;;
10471;SDS011;5283;48.876;8.962;2022-09-09T08:06:30;3.57;;;1.30;;
10471;SDS011;5283;48.876;8.962;2022-09-09T08:09:07;2.73;;;1.20;;
10471;SDS011;5283;48.876;8.962;2022-09-09T08:11:35;5.83;;;1.03;;
10471;SDS011;5283;48.876;8.962;2022-09-09T08:14:04;3.30;;;1.17;;
10471;SDS011;5283;48.876;8.962;2022-09-09T08:16:34;2.40;;;0.93;;
10471;SDS011;5283;48.876;8.962;2022-09-09T08:19:03;5.10;;;1.30;;
10471;SDS011;5283;48.876;8.962;2022-09-09T08:21:31;2.87;;;1.33;;
10471;SDS011;5283;48.876;8.962;2022-09-09T08:23:59;5.07;;;1.30;;
10471;SDS011;5283;48.876;8.962;2022-09-09T08:26:28;2.90;;;1.33;;
10471;SDS011;5283;48.876;8.962;2022-09-09T08:28:57;4.50;;;1.13;;
10471;SDS011;5283;48.876;8.962;2022-09-09T08:31:27;4.07;;;1.20;;
10471;SDS011;5283;48.876;8.962;2022-09-09T08:33:59;2.43;;;0.77;;
10471;SDS011;5283;48.876;8.962;2022-09-09T08:36:28;4.07;;;1.50;;
10471;SDS011;5283;48.876;8.962;2022-09-09T08:38:57;2.43;;;1.13;;
10471;SDS011;5283;48.876;8.962;2022-09-09T08:52:31;3.27;;;1.10;;
10471;SDS011;5283;48.876;8.962;2022-09-09T08:57:53;2.63;;;1.10;;
10471;SDS011;5283;48.876;8.962;2022-09-09T09:00:22;2.90;;;1.17;;
10471;SDS011;5283;48.876;8.962;2022-09-09T09:05:33;4.43;;;1.53;;
10471;SDS011;5283;48.876;8.962;2022-09-09T09:10:51;2.77;;;1.13;;
10471;SDS011;5283;48.876;8.962;2022-09-09T09:13:26;3.13;;;1.07;;
10471;SDS011;5283;48.876;8.962;2022-09-09T09:16:13;2.23;;;1.03;;
10471;SDS011;5283;48.876;8.962;2022-09-09T09:18:43;2.67;;;0.93;;
10471;SDS011;5283;48.876;8.962;2022-09-09T09:21:12;1.90;;;0.80;;
10471;SDS011;5283;48.876;8.962;2022-09-09T09:23:43;2.47;;;1.17;;
10471;SDS011;5283;48.876;8.962;2022-09-09T09:26:26;2.97;;;0.77;;
10471;SDS011;5283;48.876;8.962;2022-09-09T09:29:09;2.83;;;1.00;;
10471;SDS011;5283;48.876;8.962;2022-09-09T09:31:38;1.83;;;1.00;;
10471;SDS011;5283;48.876;8.962;2022-09-09T09:34:05;3.00;;;0.97;;
10471;SDS011;5283;48.876;8.962;2022-09-09T09:39:07;2.97;;;1.13;;
10471;SDS011;5283;48.876;8.962;2022-09-09T09:41:55;2.80;;;0.90;;
10471;SDS011;5283;48.876;8.962;2022-09-09T09:47:08;4.00;;;1.23;;
10471;SDS011;5283;48.876;8.962;2022-09-09T09:49:38;2.80;;;1.20;;
10471;SDS011;5283;48.876;8.962;2022-09-09T09:52:06;3.07;;;1.37;;
10471;SDS011;5283;48.876;8.962;2022-09-09T09:54:37;3.70;;;1.10;;
10471;SDS011;5283;48.876;8.962;2022-09-09T09:57:11;3.30;;;1.03;;
10471;SDS011;5283;48.876;8.962;2022-09-09T09:59:41;3.23;;;1.10;;
10471;SDS011;5283;48.876;8.962;2022-09-09T10:02:15;3.47;;;1.17;;
10471;SDS011;5283;48.876;8.962;2022-09-09T10:05:03;2.47;;;1.00;;
10471;SDS011;5283;48.876;8.962;2022-09-09T10:07:46;2.47;;;1.10;;
10471;SDS011;5283;48.876;8.962;2022-09-09T10:10:21;3.60;;;0.93;;
10471;SDS011;5283;48.876;8.962;2022-09-09T10:13:00;6.47;;;1.30;;
10471;SDS011;5283;48.876;8.962;2022-09-09T10:18:36;4.17;;;1.17;;
10471;SDS011;5283;48.876;8.962;2022-09-09T10:21:25;3.00;;;0.90;;
10471;SDS011;5283;48.876;8.962;2022-09-09T10:32:30;2.87;;;1.20;;
10471;SDS011;5283;48.876;8.962;2022-09-09T10:35:11;3.23;;;1.30;;
10471;SDS011;5283;48.876;8.962;2022-09-09T10:38:05;4.20;;;1.20;;
10471;SDS011;5283;48.876;8.962;2022-09-09T10:40:44;2.83;;;1.00;;
10471;SDS011;5283;48.876;8.962;2022-09-09T10:59:56;2.27;;;0.90;;
10471;SDS011;5283;48.876;8.962;2022-09-09T11:02:30;3.00;;;0.90;;
10471;SDS011;5283;48.876;8.962;2022-09-09T11:07:56;2.50;;;0.87;;
10471;SDS011;5283;48.876;8.962;2022-09-09T11:10:40;3.60;;;1.10;;
10471;SDS011;5283;48.876;8.962;2022-09-09T11:13:26;1.90;;;0.90;;
10471;SDS011;5283;48.876;8.962;2022-09-09T11:19:13;2.10;;;0.73;;
10471;SDS011;5283;48.876;8.962;2022-09-09T11:21:57;2.50;;;0.90;;
10471;SDS011;5283;48.876;8.962;2022-09-09T11:24:28;1.67;;;0.60;;
10471;SDS011;5283;48.876;8.962;2022-09-09T11:27:02;1.67;;;0.70;;
10471;SDS011;5283;48.876;8.962;2022-09-09T11:29:48;2.60;;;0.93;;
10471;SDS011;5283;48.876;8.962;2022-09-09T11:32:29;4.07;;;1.10;;
10471;SDS011;5283;48.876;8.962;2022-09-09T11:40:46;1.73;;;0.60;;
10471;SDS011;5283;48.876;8.962;2022-09-09T11:43:14;2.60;;;0.70;;
10471;SDS011;5283;48.876;8.962;2022-09-09T11:45:50;2.63;;;0.60;;
10471;SDS011;5283;48.876;8.962;2022-09-09T11:48:26;2.63;;;0.87;;
10471;SDS011;5283;48.876;8.962;2022-09-09T11:51:01;1.50;;;0.47;;
10471;SDS011;5283;48.876;8.962;2022-09-09T11:53:29;1.80;;;0.60;;
10471;SDS011;5283;48.876;8.962;2022-09-09T11:58:36;1.07;;;0.63;;
10471;SDS011;5283;48.876;8.962;2022-09-09T12:04:01;0.80;;;0.50;;
10471;SDS011;5283;48.876;8.962;2022-09-09T12:11:52;2.63;;;0.40;;
10471;SDS011;5283;48.876;8.962;2022-09-09T12:14:20;2.33;;;0.73;;
10471;SDS011;5283;48.876;8.962;2022-09-09T12:16:48;3.10;;;0.90;;
10471;SDS011;5283;48.876;8.962;2022-09-09T12:24:23;4.90;;;0.90;;
10471;SDS011;5283;48.876;8.962;2022-09-09T12:32:32;3.00;;;0.70;;
10471;SDS011;5283;48.876;8.962;2022-09-09T12:35:00;1.10;;;0.50;;
10471;SDS011;5283;48.876;8.962;2022-09-09T12:37:35;0.93;;;0.47;;
10471;SDS011;5283;48.876;8.962;2022-09-09T12:40:06;1.73;;;0.50;;
10471;SDS011;5283;48.876;8.962;2022-09-09T12:42:46;3.37;;;0.57;;
10471;SDS011;5283;48.876;8.962;2022-09-09T12:45:20;1.17;;;0.67;;
10471;SDS011;5283;48.876;8.962;2022-09-09T12:47:56;2.33;;;0.80;;
10471;SDS011;5283;48.876;8.962;2022-09-09T12:50:30;2.13;;;0.70;;
10471;SDS011;5283;48.876;8.962;2022-09-09T12:52:59;2.07;;;0.70;;
10471;SDS011;5283;48.876;8.962;2022-09-09T12:55:34;1.40;;;0.57;;
10471;SDS011;5283;48.876;8.962;2022-09-09T12:58:04;1.13;;;0.50;;
10471;SDS011;5283;48.876;8.962;2022-09-09T13:00:32;1.83;;;0.80;;
10471;SDS011;5283;48.876;8.962;2022-09-09T13:03:01;2.13;;;0.80;;
10471;SDS011;5283;48.876;8.962;2022-09-09T13:05:40;2.30;;;0.70;;
10471;SDS011;5283;48.876;8.962;2022-09-09T13:08:08;1.17;;;0.60;;
10471;SDS011;5283;48.876;8.962;2022-09-09T13:13:28;3.30;;;0.83;;
10471;SDS011;5283;48.876;8.962;2022-09-09T13:16:04;1.90;;;0.50;;
10471;SDS011;5283;48.876;8.962;2022-09-09T13:18:35;2.67;;;0.97;;
10471;SDS011;5283;48.876;8.962;2022-09-09T13:21:05;3.37;;;1.00;;
10471;SDS011;5283;48.876;8.962;2022-09-09T13:23:33;2.40;;;0.70;;
10471;SDS011;5283;48.876;8.962;2022-09-09T13:26:06;1.73;;;0.70;;
10471;SDS011;5283;48.876;8.962;2022-09-09T13:28:50;1.37;;;0.47;;
10471;SDS011;5283;48.876;8.962;2022-09-09T13:31:21;1.83;;;0.70;;
10471;SDS011;5283;48.876;8.962;2022-09-09T13:33:55;1.80;;;0.43;;
10471;SDS011;5283;48.876;8.962;2022-09-09T13:36:29;2.10;;;0.70;;
10471;SDS011;5283;48.876;8.962;2022-09-09T13:38:58;2.40;;;0.63;;
10471;SDS011;5283;48.876;8.962;2022-09-09T13:41:33;1.77;;;0.70;;
10471;SDS011;5283;48.876;8.962;2022-09-09T13:44:02;2.03;;;0.80;;
10471;SDS011;5283;48.876;8.962;2022-09-09T13:46:34;2.93;;;0.80;;
10471;SDS011;5283;48.876;8.962;2022-09-09T13:51:39;1.10;;;0.47;;
10471;SDS011;5283;48.876;8.962;2022-09-09T13:54:08;1.67;;;0.70;;
10471;SDS011;5283;48.876;8.962;2022-09-09T13:56:36;1.63;;;0.60;;
10471;SDS011;5283;48.876;8.962;2022-09-09T13:59:05;3.67;;;0.80;;
10471;SDS011;5283;48.876;8.962;2022-09-09T14:01:35;2.47;;;0.70;;
10471;SDS011;5283;48.876;8.962;2022-09-09T14:04:03;3.60;;;0.80;;
10471;SDS011;5283;48.876;8.962;2022-09-09T14:06:33;3.27;;;0.90;;
10471;SDS011;5283;48.876;8.962;2022-09-09T14:09:03;3.00;;;0.80;;
10471;SDS011;5283;48.876;8.962;2022-09-09T14:11:33;2.03;;;0.63;;
10471;SDS011;5283;48.876;8.962;2022-09-09T14:14:00;2.70;;;0.73;;
10471;SDS011;5283;48.876;8.962;2022-09-09T14:16:27;2.70;;;1.00;;
10471;SDS011;5283;48.876;8.962;2022-09-09T14:18:54;3.73;;;0.80;;
10471;SDS011;5283;48.876;8.962;2022-09-09T14:21:25;1.87;;;0.80;;
10471;SDS011;5283;48.876;8.962;2022-09-09T14:23:53;3.07;;;0.90;;
10471;SDS011;5283;48.876;8.962;2022-09-09T14:26:21;1.83;;;0.60;;
10471;SDS011;5283;48.876;8.962;2022-09-09T14:28:48;1.27;;;0.40;;
10471;SDS011;5283;48.876;8.962;2022-09-09T14:31:22;2.17;;;0.77;;
10471;SDS011;5283;48.876;8.962;2022-09-09T14:33:49;1.93;;;0.70;;
10471;SDS011;5283;48.876;8.962;2022-09-09T14:36:17;2.73;;;1.03;;
10471;SDS011;5283;48.876;8.962;2022-09-09T14:38:43;3.40;;;0.83;;
10471;SDS011;5283;48.876;8.962;2022-09-09T14:41:11;2.47;;;0.77;;
10471;SDS011;5283;48.876;8.962;2022-09-09T14:43:39;1.83;;;0.63;;
10471;SDS011;5283;48.876;8.962;2022-09-09T14:46:07;1.37;;;0.60;;
10471;SDS011;5283;48.876;8.962;2022-09-09T14:48:35;1.70;;;0.53;;
10471;SDS011;5283;48.876;8.962;2022-09-09T14:51:05;3.00;;;0.80;;
10471;SDS011;5283;48.876;8.962;2022-09-09T14:53:40;1.53;;;0.70;;
10471;SDS011;5283;48.876;8.962;2022-09-09T14:56:07;1.60;;;0.60;;
10471;SDS011;5283;48.876;8.962;2022-09-09T14:58:36;2.83;;;0.67;;
10471;SDS011;5283;48.876;8.962;2022-09-09T15:01:04;2.27;;;0.53;;
10471;SDS011;5283;48.876;8.962;2022-09-09T15:03:32;1.33;;;0.37;;
10471;SDS011;5283;48.876;8.962;2022-09-09T15:06:10;1.13;;;0.40;;
10471;SDS011;5283;48.876;8.962;2022-09-09T15:08:42;1.30;;;0.47;;
10471;SDS011;5283;48.876;8.962;2022-09-09T15:11:11;1.20;;;0.50;;
10471;SDS011;5283;48.876;8.962;2022-09-09T15:13:39;1.50;;;0.63;;
10471;SDS011;5283;48.876;8.962;2022-09-09T15:16:08;1.97;;;0.50;;
10471;SDS011;5283;48.876;8.962;2022-09-09T15:18:35;1.50;;;0.73;;
10471;SDS011;5283;48.876;8.962;2022-09-09T15:21:03;1.83;;;0.83;;
10471;SDS011;5283;48.876;8.962;2022-09-09T15:23:31;0.87;;;0.57;;
10471;SDS011;5283;48.876;8.962;2022-09-09T15:25:59;2.57;;;0.50;;
10471;SDS011;5283;48.876;8.962;2022-09-09T15:28:25;3.33;;;0.57;;
10471;SDS011;5283;48.876;8.962;2022-09-09T15:30:53;1.53;;;0.50;;
10471;SDS011;5283;48.876;8.962;2022-09-09T15:33:20;4.43;;;0.60;;
10471;SDS011;5283;48.876;8.962;2022-09-09T15:35:48;2.13;;;0.57;;
10471;SDS011;5283;48.876;8.962;2022-09-09T15:38:15;1.20;;;0.60;;
10471;SDS011;5283;48.876;8.962;2022-09-09T15:40:43;2.13;;;0.67;;
10471;SDS011;5283;48.876;8.962;2022-09-09T15:43:10;2.87;;;0.67;;
10471;SDS011;5283;48.876;8.962;2022-09-09T15:45:36;1.97;;;0.70;;
10471;SDS011;5283;48.876;8.962;2022-09-09T15:48:03;2.37;;;0.80;;
10471;SDS011;5283;48.876;8.962;2022-09-09T15:50:30;1.50;;;0.50;;
10471;SDS011;5283;48.876;8.962;2022-09-09T15:52:58;1.87;;;0.80;;
10471;SDS011;5283;48.876;8.962;2022-09-09T15:55:25;2.30;;;0.90;;
10471;SDS011;5283;48.876;8.962;2022-09-09T15:57:52;1.43;;;0.60;;
10471;SDS011;5283;48.876;8.962;2022-09-09T16:00:19;2.37;;;0.70;;
10471;SDS011;5283;48.876;8.962;2022-09-09T16:02:47;2.73;;;0.67;;
10471;SDS011;5283;48.876;8.962;2022-09-09T16:05:14;4.30;;;0.90;;
10471;SDS011;5283;48.876;8.962;2022-09-09T16:07:41;2.43;;;0.50;;
10471;SDS011;5283;48.876;8.962;2022-09-09T16:10:08;6.63;;;1.37;;
10471;SDS011;5283;48.876;8.962;2022-09-09T16:12:35;4.87;;;1.10;;
10471;SDS011;5283;48.876;8.962;2022-09-09T16:15:02;4.37;;;0.67;;
10471;SDS011;5283;48.876;8.962;2022-09-09T16:17:29;3.37;;;0.50;;
10471;SDS011;5283;48.876;8.962;2022-09-09T16:20:03;4.13;;;0.70;;
10471;SDS011;5283;48.876;8.962;2022-09-09T16:22:32;1.57;;;0.50;;
10471;SDS011;5283;48.876;8.962;2022-09-09T16:24:59;2.60;;;0.53;;
10471;SDS011;5283;48.876;8.962;2022-09-09T16:27:26;0.97;;;0.50;;
10471;SDS011;5283;48.876;8.962;2022-09-09T16:29:52;2.23;;;0.50;;
10471;SDS011;5283;48.876;8.962;2022-09-09T16:32:19;1.80;;;0.47;;
10471;SDS011;5283;48.876;8.962;2022-09-09T16:34:46;0.67;;;0.40;;
10471;SDS011;5283;48.876;8.962;2022-09-09T16:37:14;2.23;;;0.43;;
10471;SDS011;5283;48.876;8.962;2022-09-09T16:39:41;1.40;;;0.53;;
10471;SDS011;5283;48.876;8.962;2022-09-09T16:42:07;4.57;;;0.60;;
10471;SDS011;5283;48.876;8.962;2022-09-09T16:44:35;1.63;;;0.70;;
10471;SDS011;5283;48.876;8.962;2022-09-09T16:47:02;3.60;;;0.90;;
10471;SDS011;5283;48.876;8.962;2022-09-09T16:49:29;1.47;;;0.67;;
10471;SDS011;5283;48.876;8.962;2022-09-09T16:51:57;1.57;;;0.70;;
10471;SDS011;5283;48.876;8.962;2022-09-09T16:54:24;2.10;;;0.40;;
10471;SDS011;5283;48.876;8.962;2022-09-09T16:56:53;3.23;;;0.50;;
10471;SDS011;5283;48.876;8.962;2022-09-09T16:59:20;0.47;;;0.40;;
10471;SDS011;5283;48.876;8.962;2022-09-09T17:01:48;1.40;;;0.60;;
10471;SDS011;5283;48.876;8.962;2022-09-09T17:04:18;2.07;;;0.70;;
10471;SDS011;5283;48.876;8.962;2022-09-09T17:06:47;0.43;;;0.30;;
10471;SDS011;5283;48.876;8.962;2022-09-09T17:09:18;1.27;;;0.50;;
10471;SDS011;5283;48.876;8.962;2022-09-09T17:11:46;0.43;;;0.40;;
10471;SDS011;5283;48.876;8.962;2022-09-09T17:14:15;2.50;;;0.50;;
10471;SDS011;5283;48.876;8.962;2022-09-09T17:16:43;1.67;;;0.50;;
10471;SDS011;5283;48.876;8.962;2022-09-09T17:19:10;2.30;;;0.70;;
10471;SDS011;5283;48.876;8.962;2022-09-09T17:21:38;0.70;;;0.70;;
10471;SDS011;5283;48.876;8.962;2022-09-09T17:24:14;1.80;;;0.60;;
10471;SDS011;5283;48.876;8.962;2022-09-09T17:26:41;1.87;;;0.63;;
10471;SDS011;5283;48.876;8.962;2022-09-09T17:29:09;0.80;;;0.70;;
10471;SDS011;5283;48.876;8.962;2022-09-09T17:31:37;6.30;;;0.80;;
10471;SDS011;5283;48.876;8.962;2022-09-09T17:34:04;1.73;;;1.00;;